Terminal Aerodrome Forecast
Issued by NWS

Current Version | Previous Version | Text Only | Print | Product List | Glossary On
Versions: 1 2 3 4 5 6 7 8 9 10 11 12
137
FTUS42 TJSJ 122338
TAFISX
TAF
TISX 122338Z 1300/1324 08009KT P6SM VCSH FEW025 SCT050
     FM130530 06005KT P6SM SCT030
     FM131400 11014KT P6SM FEW025 SCT050=

USA.gov is the U.S. government's official web portal to all federal, state and local government web resources and services.